createdAt,value
2022-10-21T00:01:46.197Z,5.93
2022-10-21T00:04:16.375Z,6.25
2022-10-21T00:06:47.025Z,6.30
2022-10-21T00:09:19.752Z,6.13
2022-10-21T00:11:49.882Z,6.30
2022-10-21T00:14:20.158Z,6.50
2022-10-21T00:16:50.308Z,6.63
2022-10-21T00:19:20.450Z,6.85
2022-10-21T00:21:50.616Z,6.45
2022-10-21T00:24:23.355Z,6.45
2022-10-21T00:26:56.350Z,5.55
2022-10-21T00:29:26.497Z,6.30
2022-10-21T00:31:57.279Z,6.63
2022-10-21T00:34:30.784Z,6.32
2022-10-21T00:37:01.472Z,5.88
2022-10-21T00:39:34.661Z,6.80
2022-10-21T00:42:05.344Z,6.28
2022-10-21T00:44:37.638Z,6.97
2022-10-21T00:47:13.731Z,7.13
2022-10-21T00:49:48.517Z,6.93
2022-10-21T00:54:58.796Z,6.20
2022-10-21T00:57:31.258Z,7.03
2022-10-21T01:00:05.131Z,7.25
2022-10-21T01:02:35.263Z,6.77
2022-10-21T01:05:08.038Z,6.93
2022-10-21T01:07:41.089Z,6.43
2022-10-21T01:10:14.487Z,6.75
2022-10-21T01:13:04.287Z,6.95
2022-10-21T01:15:41.821Z,7.25
2022-10-21T01:18:21.368Z,6.75
2022-10-21T01:21:20.052Z,7.25
2022-10-21T01:24:37.205Z,6.93
2022-10-21T01:27:21.643Z,7.80
2022-10-21T01:30:18.537Z,7.05
2022-10-21T01:33:39.033Z,6.65
2022-10-21T01:36:26.785Z,6.47
2022-10-21T01:39:13.811Z,7.07
2022-10-21T01:41:49.122Z,7.45
2022-10-21T01:44:27.225Z,7.07
2022-10-21T01:47:02.333Z,7.63
2022-10-21T01:49:36.963Z,7.28
2022-10-21T01:52:11.522Z,7.47
2022-10-21T01:54:48.028Z,7.80
2022-10-21T01:57:22.135Z,7.95
2022-10-21T01:59:54.393Z,7.47
2022-10-21T02:02:26.913Z,8.23
2022-10-21T02:04:59.577Z,7.10
2022-10-21T02:07:32.503Z,7.13
2022-10-21T02:10:02.847Z,7.25
2022-10-21T02:12:35.294Z,8.07
2022-10-21T02:15:07.800Z,7.60
2022-10-21T02:17:41.315Z,7.75
2022-10-21T02:20:14.144Z,7.57
2022-10-21T02:22:50.268Z,7.05
2022-10-21T02:25:25.500Z,8.20
2022-10-21T02:27:56.432Z,7.53
2022-10-21T02:30:26.674Z,7.75
2022-10-21T02:33:04.339Z,7.93
2022-10-21T02:35:41.632Z,7.90
2022-10-21T02:38:25.416Z,7.82
2022-10-21T02:40:59.833Z,8.55
2022-10-21T02:43:35.840Z,7.85
2022-10-21T02:46:11.619Z,7.57
2022-10-21T02:48:47.763Z,8.00
2022-10-21T02:51:18.674Z,7.38
2022-10-21T02:53:51.388Z,7.70
2022-10-21T02:56:21.605Z,8.10
2022-10-21T02:58:51.765Z,8.00
2022-10-21T03:01:22.008Z,8.10
2022-10-21T03:03:52.369Z,8.40
2022-10-21T03:06:22.967Z,8.98
2022-10-21T03:08:55.793Z,8.20
2022-10-21T03:11:26.277Z,7.88
2022-10-21T03:13:56.669Z,7.78
2022-10-21T03:16:27.042Z,8.55
2022-10-21T03:18:57.449Z,8.90
2022-10-21T03:21:27.699Z,8.75
2022-10-21T03:24:00.571Z,8.43
2022-10-21T03:26:30.732Z,9.15
2022-10-21T03:29:00.924Z,8.23
2022-10-21T03:31:31.463Z,8.43
2022-10-21T03:34:01.713Z,9.20
2022-10-21T03:36:31.912Z,8.82
2022-10-21T03:39:04.696Z,8.40
2022-10-21T03:41:34.848Z,8.73
2022-10-21T03:44:05.015Z,8.25
2022-10-21T03:46:35.628Z,9.40
2022-10-21T03:49:09.145Z,8.80
2022-10-21T03:51:40.568Z,9.10
2022-10-21T03:54:13.401Z,7.80
2022-10-21T03:56:43.568Z,9.32
2022-10-21T03:59:13.803Z,9.18
2022-10-21T04:01:44.084Z,8.80
2022-10-21T04:04:14.475Z,8.85
2022-10-21T04:06:44.693Z,9.10
2022-10-21T04:09:17.758Z,8.68
2022-10-21T04:11:48.018Z,8.50
2022-10-21T04:14:18.265Z,8.30
2022-10-21T04:16:53.646Z,8.75
2022-10-21T04:19:32.416Z,9.07
2022-10-21T04:22:02.680Z,8.68
2022-10-21T04:24:35.502Z,9.18
2022-10-21T04:27:05.776Z,9.10
2022-10-21T04:29:35.900Z,8.30
2022-10-21T04:32:06.181Z,8.82
2022-10-21T04:34:36.334Z,8.98
2022-10-21T04:37:06.679Z,8.75
2022-10-21T04:39:39.420Z,8.45
2022-10-21T04:42:09.499Z,9.18
2022-10-21T04:44:41.951Z,8.90
2022-10-21T04:47:12.203Z,9.18
2022-10-21T04:49:42.364Z,8.95
2022-10-21T04:52:12.645Z,9.27
2022-10-21T04:54:45.441Z,9.65
2022-10-21T04:57:16.100Z,9.07
2022-10-21T04:59:46.251Z,8.80
2022-10-21T05:02:17.774Z,9.15
2022-10-21T05:04:49.572Z,9.32
2022-10-21T05:07:19.656Z,8.98
2022-10-21T05:09:52.360Z,9.43
2022-10-21T05:12:22.697Z,9.27
2022-10-21T05:14:52.945Z,8.82
2022-10-21T05:17:23.164Z,9.23
2022-10-21T05:19:53.237Z,9.40
2022-10-21T05:22:23.459Z,9.07
2022-10-21T05:24:56.206Z,9.50
2022-10-21T05:27:26.337Z,9.60
2022-10-21T05:29:56.777Z,9.40
2022-10-21T05:32:27.084Z,9.27
2022-10-21T05:34:57.383Z,9.63
2022-10-21T05:37:30.259Z,8.75
2022-10-21T05:40:04.424Z,9.02
2022-10-21T05:42:34.675Z,10.88
2022-10-21T05:45:04.811Z,9.73
2022-10-21T05:47:35.031Z,9.43
2022-10-21T05:50:05.398Z,9.73
2022-10-21T05:52:35.746Z,9.20
2022-10-21T05:55:11.080Z,9.38
2022-10-21T05:57:42.035Z,9.55
2022-10-21T06:00:18.039Z,8.75
2022-10-21T06:02:48.151Z,9.40
2022-10-21T06:05:19.764Z,9.23
2022-10-21T06:07:50.066Z,10.27
2022-10-21T06:10:26.717Z,9.98
2022-10-21T06:12:59.420Z,8.98
2022-10-21T06:15:29.654Z,9.23
2022-10-21T06:17:59.888Z,8.95
2022-10-21T06:20:30.119Z,8.88
2022-10-21T06:23:02.518Z,8.32
2022-10-21T06:25:35.244Z,9.07
2022-10-21T06:28:06.279Z,8.52
2022-10-21T06:30:37.385Z,7.85
2022-10-21T06:33:07.540Z,7.20
2022-10-21T06:35:37.752Z,7.53
2022-10-21T06:38:07.949Z,7.50
2022-10-21T06:40:40.815Z,8.82
2022-10-21T06:43:11.773Z,9.23
2022-10-21T06:45:42.143Z,8.27
2022-10-21T06:48:13.727Z,7.75
2022-10-21T06:50:44.373Z,7.60
2022-10-21T06:53:14.747Z,10.15
2022-10-21T06:55:47.634Z,10.20
2022-10-21T06:58:17.989Z,9.57
2022-10-21T07:00:48.298Z,9.63
2022-10-21T07:03:18.657Z,8.55
2022-10-21T07:05:49.050Z,8.77
2022-10-21T07:08:22.427Z,7.78
2022-10-21T07:11:03.004Z,6.88
2022-10-21T07:13:33.359Z,7.47
2022-10-21T07:16:04.936Z,7.85
2022-10-21T07:18:39.165Z,8.02
2022-10-21T07:21:17.767Z,7.35
2022-10-21T07:23:49.550Z,7.68
2022-10-21T07:26:24.767Z,7.68
2022-10-21T07:28:55.205Z,8.40
2022-10-21T07:31:25.590Z,10.18
2022-10-21T07:33:56.688Z,8.02
2022-10-21T07:36:29.358Z,7.72
2022-10-21T07:39:04.328Z,9.45
2022-10-21T07:41:39.437Z,9.85
2022-10-21T07:44:10.260Z,9.50
2022-10-21T07:46:43.364Z,8.32
2022-10-21T07:49:15.954Z,8.15
2022-10-21T07:51:46.708Z,7.57
2022-10-21T07:54:18.060Z,8.52
2022-10-21T07:56:53.896Z,9.00
2022-10-21T07:59:25.480Z,8.60
2022-10-21T08:01:55.692Z,8.68
2022-10-21T08:04:30.073Z,8.45
2022-10-21T08:07:02.636Z,9.38
2022-10-21T08:09:33.058Z,9.88
2022-10-21T08:12:06.537Z,12.65
2022-10-21T08:14:38.418Z,16.48
2022-10-21T08:17:08.633Z,13.55
2022-10-21T08:19:38.845Z,19.45
2022-10-21T08:22:12.076Z,13.77
2022-10-21T08:24:42.568Z,15.35
2022-10-21T08:27:15.233Z,10.85
2022-10-21T08:29:45.691Z,8.63
2022-10-21T08:32:16.018Z,8.32
2022-10-21T08:34:46.199Z,7.50
2022-10-21T08:37:16.359Z,7.78
2022-10-21T08:39:46.545Z,7.72
2022-10-21T08:42:20.661Z,8.10
2022-10-21T08:44:57.388Z,7.72
2022-10-21T08:47:36.733Z,7.88
2022-10-21T08:50:12.897Z,7.35
2022-10-21T08:52:48.736Z,7.55
2022-10-21T08:55:24.297Z,7.97
2022-10-21T08:57:57.713Z,7.80
2022-10-21T09:00:34.146Z,6.82
2022-10-21T09:03:13.897Z,8.40
2022-10-21T09:06:19.232Z,7.90
2022-10-21T09:09:19.351Z,7.15
2022-10-21T09:12:10.054Z,6.45
2022-10-21T09:15:04.938Z,7.60
2022-10-21T09:17:51.479Z,7.93
2022-10-21T09:20:40.929Z,7.13
2022-10-21T09:23:34.957Z,8.02
2022-10-21T09:26:07.641Z,8.23
2022-10-21T09:28:38.591Z,8.25
2022-10-21T09:31:19.214Z,8.80
2022-10-21T09:33:55.125Z,7.97
2022-10-21T09:36:29.601Z,7.63
2022-10-21T09:39:05.230Z,7.38
2022-10-21T09:41:43.500Z,8.43
2022-10-21T09:44:19.707Z,7.20
2022-10-21T09:46:55.597Z,7.03
2022-10-21T09:50:06.524Z,9.05
2022-10-21T09:52:26.166Z,7.30
2022-10-21T09:54:56.538Z,7.40
2022-10-21T09:57:41.111Z,7.35
2022-10-21T10:00:14.137Z,6.07
2022-10-21T10:02:52.343Z,7.32
2022-10-21T10:05:40.296Z,7.40
2022-10-21T10:08:33.227Z,8.23
2022-10-21T10:11:15.222Z,6.97
2022-10-21T10:13:48.200Z,7.70
2022-10-21T10:16:32.138Z,7.07
2022-10-21T10:19:21.617Z,6.20
2022-10-21T10:22:14.311Z,6.68
2022-10-21T10:24:46.349Z,6.63
2022-10-21T10:27:23.399Z,7.00
2022-10-21T10:30:00.024Z,6.47
2022-10-21T10:32:34.801Z,5.57
2022-10-21T10:35:21.132Z,6.70
2022-10-21T10:37:53.082Z,5.78
2022-10-21T10:40:27.461Z,6.88
2022-10-21T10:43:07.539Z,6.10
2022-10-21T10:45:38.535Z,6.50
2022-10-21T10:48:09.644Z,6.03
2022-10-21T10:50:53.861Z,5.95
2022-10-21T10:53:34.026Z,6.93
2022-10-21T10:56:18.907Z,6.38
2022-10-21T10:58:58.687Z,7.07
2022-10-21T11:01:33.754Z,6.35
2022-10-21T11:04:16.567Z,6.20
2022-10-21T11:06:55.697Z,6.40
2022-10-21T11:09:28.266Z,6.15
2022-10-21T11:11:58.933Z,6.45
2022-10-21T11:14:29.478Z,5.65
2022-10-21T11:17:09.352Z,6.78
2022-10-21T11:19:52.298Z,6.80
2022-10-21T11:22:42.551Z,6.60
2022-10-21T11:25:24.325Z,6.70
2022-10-21T11:28:13.297Z,6.15
2022-10-21T11:31:03.601Z,7.25
2022-10-21T11:33:48.061Z,6.55
2022-10-21T11:36:27.272Z,6.85
2022-10-21T11:39:42.984Z,6.55
2022-10-21T11:42:26.406Z,6.15
2022-10-21T11:45:15.747Z,6.28
2022-10-21T11:47:54.284Z,6.85
2022-10-21T11:50:32.687Z,5.55
2022-10-21T11:53:28.283Z,6.07
2022-10-21T11:56:13.750Z,5.88
2022-10-21T11:59:00.266Z,6.15
2022-10-21T12:01:40.452Z,6.10
2022-10-21T12:04:33.414Z,4.28
2022-10-21T12:07:21.114Z,6.53
2022-10-21T12:09:58.340Z,6.13
2022-10-21T12:12:36.113Z,5.63
2022-10-21T12:15:17.506Z,6.13
2022-10-21T12:17:50.801Z,5.80
2022-10-21T12:20:25.455Z,5.20
2022-10-21T12:25:39.719Z,5.03
2022-10-21T12:28:21.016Z,5.10
2022-10-21T12:30:59.434Z,5.47
2022-10-21T12:33:41.204Z,5.75
2022-10-21T12:36:38.667Z,5.50
2022-10-21T12:39:14.132Z,4.85
2022-10-21T12:41:46.379Z,5.90
2022-10-21T12:44:28.953Z,5.90
2022-10-21T12:47:04.796Z,5.35
2022-10-21T12:49:38.716Z,5.05
2022-10-21T12:52:14.521Z,5.10
2022-10-21T12:54:57.770Z,5.35
2022-10-21T12:57:31.632Z,5.55
2022-10-21T13:00:56.713Z,5.45
2022-10-21T13:03:58.231Z,5.05
2022-10-21T13:06:54.743Z,4.88
2022-10-21T13:09:44.758Z,5.43
2022-10-21T13:12:33.480Z,5.85
2022-10-21T13:15:06.431Z,5.13
2022-10-21T13:17:55.172Z,4.93
2022-10-21T13:20:50.524Z,5.72
2022-10-21T13:26:28.610Z,5.70
2022-10-21T13:29:10.382Z,5.80
2022-10-21T13:31:43.556Z,5.32
2022-10-21T13:34:31.284Z,5.95
2022-10-21T13:37:01.817Z,5.47
2022-10-21T13:39:36.737Z,4.88
2022-10-21T13:42:15.535Z,5.32
2022-10-21T13:44:55.525Z,5.05
2022-10-21T13:47:33.010Z,5.65
2022-10-21T13:50:19.166Z,5.55
2022-10-21T13:52:49.670Z,5.70
2022-10-21T13:55:25.042Z,5.63
2022-10-21T13:57:58.207Z,5.28
2022-10-21T14:00:32.116Z,5.35
2022-10-21T14:03:06.881Z,5.55
2022-10-21T14:05:49.560Z,6.97
2022-10-21T14:08:28.577Z,6.60
2022-10-21T14:11:02.667Z,5.78
2022-10-21T14:13:40.280Z,5.03
2022-10-21T14:16:12.135Z,5.47
2022-10-21T14:18:47.746Z,6.25
2022-10-21T14:21:25.710Z,6.03
2022-10-21T14:23:57.777Z,5.63
2022-10-21T14:26:31.145Z,5.43
2022-10-21T14:29:04.378Z,6.03
2022-10-21T14:31:34.854Z,5.32
2022-10-21T14:34:07.520Z,6.03
2022-10-21T14:37:09.376Z,5.78
2022-10-21T14:39:42.633Z,5.28
2022-10-21T14:42:19.999Z,5.45
2022-10-21T14:44:54.246Z,5.78
2022-10-21T14:47:27.776Z,6.15
2022-10-21T14:50:01.164Z,5.70
2022-10-21T14:52:38.835Z,5.75
2022-10-21T14:55:15.176Z,5.28
2022-10-21T14:57:49.761Z,5.65
2022-10-21T15:03:02.512Z,5.40
2022-10-21T15:05:48.830Z,5.97
2022-10-21T15:08:34.549Z,5.70
2022-10-21T15:11:26.226Z,9.63
2022-10-21T15:14:10.387Z,6.78
2022-10-21T15:16:41.043Z,5.90
2022-10-21T15:19:15.063Z,6.18
2022-10-21T15:21:55.031Z,6.07
2022-10-21T15:24:38.829Z,5.85
2022-10-21T15:27:09.870Z,5.60
2022-10-21T15:29:46.318Z,6.30
2022-10-21T15:32:20.191Z,6.03
2022-10-21T15:34:54.175Z,6.60
2022-10-21T15:37:24.514Z,7.63
2022-10-21T15:39:57.569Z,7.38
2022-10-21T15:42:28.160Z,5.90
2022-10-21T15:44:58.692Z,6.38
2022-10-21T15:47:29.056Z,6.53
2022-10-21T15:49:59.453Z,6.15
2022-10-21T15:52:29.749Z,5.97
2022-10-21T15:55:02.646Z,5.50
2022-10-21T15:57:33.369Z,6.60
2022-10-21T16:00:03.976Z,6.25
2022-10-21T16:02:39.804Z,6.38
2022-10-21T16:05:11.760Z,6.63
2022-10-21T16:07:42.794Z,6.60
2022-10-21T16:10:23.466Z,6.63
2022-10-21T16:12:54.556Z,6.85
2022-10-21T16:15:26.559Z,6.47
2022-10-21T16:17:59.868Z,6.63
2022-10-21T16:20:33.740Z,6.57
2022-10-21T16:23:04.212Z,7.20
2022-10-21T16:25:37.873Z,6.55
2022-10-21T16:28:08.685Z,6.97
2022-10-21T16:30:42.183Z,7.30
2022-10-21T16:33:12.799Z,7.15
2022-10-21T16:35:43.330Z,6.30
2022-10-21T16:38:13.625Z,6.28
2022-10-21T16:40:46.725Z,6.15
2022-10-21T16:43:17.103Z,6.93
2022-10-21T16:45:50.033Z,7.20
2022-10-21T16:48:20.573Z,6.88
2022-10-21T16:50:50.948Z,7.05
2022-10-21T16:53:22.011Z,7.57
2022-10-21T16:55:54.779Z,7.78
2022-10-21T16:58:25.027Z,7.97
2022-10-21T17:00:55.489Z,7.88
2022-10-21T17:03:25.864Z,8.00
2022-10-21T17:05:56.120Z,8.55
2022-10-21T17:08:26.563Z,10.00
2022-10-21T17:10:59.740Z,11.80
2022-10-21T17:13:30.233Z,12.35
2022-10-21T17:16:01.020Z,10.98
2022-10-21T17:18:31.655Z,9.82
2022-10-21T17:21:02.435Z,9.63
2022-10-21T17:23:32.985Z,9.27
2022-10-21T17:26:06.106Z,8.60
2022-10-21T17:28:36.695Z,8.68
2022-10-21T17:31:07.565Z,8.93
2022-10-21T17:33:38.213Z,9.13
2022-10-21T17:36:09.739Z,10.32
2022-10-21T17:38:42.116Z,12.40
2022-10-21T17:41:17.529Z,11.60
2022-10-21T17:43:48.236Z,11.48
2022-10-21T17:46:23.124Z,11.88
2022-10-21T17:48:53.760Z,8.70
2022-10-21T17:51:25.601Z,9.27
2022-10-21T17:53:57.579Z,9.65
2022-10-21T17:56:31.119Z,8.40
2022-10-21T17:59:01.860Z,9.43
2022-10-21T18:01:32.501Z,9.15
2022-10-21T18:04:03.382Z,8.75
2022-10-21T18:06:33.862Z,9.38
2022-10-21T18:09:05.574Z,8.63
2022-10-21T18:11:39.425Z,10.10
2022-10-21T18:14:10.060Z,9.40
2022-10-21T18:16:41.414Z,11.23
2022-10-21T18:19:12.321Z,10.05
2022-10-21T18:21:42.765Z,10.25
2022-10-21T18:24:13.290Z,10.32
2022-10-21T18:26:46.472Z,11.63
2022-10-21T18:29:17.435Z,10.70
2022-10-21T18:31:48.009Z,11.73
2022-10-21T18:34:20.949Z,11.90
2022-10-21T18:39:22.412Z,12.68
2022-10-21T18:41:56.032Z,12.63
2022-10-21T18:44:26.076Z,13.15
2022-10-21T18:46:56.321Z,13.90
2022-10-21T18:49:26.678Z,12.23
2022-10-21T18:51:56.907Z,13.27
2022-10-21T18:54:27.233Z,14.23
2022-10-21T18:57:00.039Z,13.52
2022-10-21T18:59:30.272Z,12.43
2022-10-21T19:02:00.457Z,13.25
2022-10-21T19:04:30.775Z,13.13
2022-10-21T19:07:01.161Z,13.02
2022-10-21T19:09:31.599Z,13.45
2022-10-21T19:12:04.528Z,13.25
2022-10-21T19:14:34.743Z,12.60
2022-10-21T19:17:05.320Z,16.25
2022-10-21T19:19:39.234Z,16.05
2022-10-21T19:22:09.646Z,18.25
2022-10-21T19:24:39.842Z,16.77
2022-10-21T19:27:12.674Z,16.15
2022-10-21T19:29:43.588Z,14.25
2022-10-21T19:32:16.855Z,27.60
2022-10-21T19:34:47.434Z,20.75
2022-10-21T19:37:17.676Z,15.52
2022-10-21T19:39:47.952Z,15.45
2022-10-21T19:42:20.739Z,14.70
2022-10-21T19:44:51.256Z,14.38
2022-10-21T19:47:21.530Z,15.15
2022-10-21T19:49:51.706Z,13.63
2022-10-21T19:52:22.018Z,14.57
2022-10-21T19:54:52.920Z,13.75
2022-10-21T19:57:25.535Z,13.80
2022-10-21T19:59:56.822Z,14.00
2022-10-21T20:02:27.003Z,14.23
2022-10-21T20:04:57.085Z,14.02
2022-10-21T20:07:27.327Z,14.05
2022-10-21T20:09:57.450Z,14.65
2022-10-21T20:12:30.432Z,15.32
2022-10-21T20:15:01.285Z,13.32
2022-10-21T20:20:22.795Z,14.35
2022-10-21T20:22:52.972Z,13.68
2022-10-21T20:25:23.189Z,13.73
2022-10-21T20:27:56.008Z,13.20
2022-10-21T20:30:26.130Z,14.90
2022-10-21T20:32:56.277Z,14.77
2022-10-21T20:35:26.771Z,14.77
2022-10-21T20:37:56.979Z,16.13
2022-10-21T20:40:27.708Z,15.75
2022-10-21T20:43:00.511Z,15.10
2022-10-21T20:45:30.730Z,14.70
2022-10-21T20:48:00.997Z,13.70
2022-10-21T20:50:31.295Z,13.68
2022-10-21T20:53:01.439Z,13.68
2022-10-21T20:55:31.670Z,13.93
2022-10-21T20:58:04.312Z,14.13
2022-10-21T21:00:34.514Z,15.32
2022-10-21T21:03:04.831Z,14.25
2022-10-21T21:05:39.096Z,12.40
2022-10-21T21:08:09.568Z,13.15
2022-10-21T21:10:39.979Z,14.25
2022-10-21T21:13:12.795Z,14.00
2022-10-21T21:15:43.255Z,14.25
2022-10-21T21:18:14.283Z,13.63
2022-10-21T21:20:44.730Z,13.45
2022-10-21T21:23:14.994Z,13.90
2022-10-21T21:25:45.105Z,13.40
2022-10-21T21:28:18.145Z,14.40
2022-10-21T21:30:55.024Z,13.75
2022-10-21T21:33:25.410Z,13.13
2022-10-21T21:35:59.245Z,12.35
2022-10-21T21:38:31.522Z,12.97
2022-10-21T21:41:05.509Z,12.05
2022-10-21T21:43:44.043Z,12.55
2022-10-21T21:46:14.165Z,12.38
2022-10-21T21:48:46.754Z,12.32
2022-10-21T21:51:18.944Z,12.68
2022-10-21T21:53:50.509Z,12.85
2022-10-21T21:56:22.644Z,12.88
2022-10-21T21:58:58.162Z,13.23
2022-10-21T22:01:34.774Z,11.93
2022-10-21T22:04:05.617Z,12.40
2022-10-21T22:06:42.067Z,12.52
2022-10-21T22:09:12.620Z,10.75
2022-10-21T22:11:43.039Z,12.13
2022-10-21T22:14:15.846Z,11.55
2022-10-21T22:16:46.107Z,13.50
2022-10-21T22:19:16.502Z,13.70
2022-10-21T22:21:46.731Z,12.32
2022-10-21T22:24:16.948Z,12.98
2022-10-21T22:26:47.098Z,11.98
2022-10-21T22:29:19.838Z,13.70
2022-10-21T22:31:50.044Z,12.77
2022-10-21T22:34:20.255Z,12.52
2022-10-21T22:36:50.434Z,12.82
2022-10-21T22:39:20.554Z,13.23
2022-10-21T22:41:50.669Z,13.27
2022-10-21T22:44:23.591Z,13.05
2022-10-21T22:46:53.840Z,13.10
2022-10-21T22:49:24.013Z,12.95
2022-10-21T22:51:54.193Z,12.75
2022-10-21T22:54:47.897Z,14.10
2022-10-21T22:57:14.933Z,12.60
2022-10-21T22:59:52.820Z,13.23
2022-10-21T23:02:23.614Z,12.65
2022-10-21T23:04:53.735Z,12.95
2022-10-21T23:07:24.021Z,12.85
2022-10-21T23:09:54.238Z,14.05
2022-10-21T23:12:24.372Z,13.93
2022-10-21T23:14:57.071Z,14.00
2022-10-21T23:17:27.857Z,12.40
2022-10-21T23:19:58.065Z,12.40
2022-10-21T23:22:28.218Z,13.20
2022-10-21T23:24:58.384Z,13.93
2022-10-21T23:27:28.550Z,12.57
2022-10-21T23:30:01.428Z,13.57
2022-10-21T23:32:31.566Z,14.18
2022-10-21T23:35:01.669Z,12.60
2022-10-21T23:37:31.863Z,13.77
2022-10-21T23:40:02.057Z,14.50
2022-10-21T23:42:32.304Z,14.35
2022-10-21T23:45:05.008Z,12.45
2022-10-21T23:47:35.684Z,14.43
2022-10-21T23:50:06.138Z,13.63
2022-10-21T23:52:36.364Z,13.70
2022-10-21T23:55:08.042Z,13.90
2022-10-21T23:57:38.586Z,12.63
